Time;durP1;ratioP1;P1;durP2;ratioP2;P2;SDS_P1;SDS_P2;PMS_P1;PMS_P2;Temp;Humidity;BMP_temperature;BMP_pressure;BME280_temperature;BME280_humidity;BME280_pressure;Samples;Min_cycle;Max_cycle;Signal;HPM_P1;HPM_P2
2023/11/29 00:00:09;;;;;;;52.15;24.40;;;1.00;99.90;;;;;;5058841;28;20041;-71
2023/11/29 00:02:34;;;;;;;54.20;23.65;;;1.00;99.90;;;;;;5060548;28;20381;-73
2023/11/29 00:05:00;;;;;;;42.78;18.52;;;1.00;99.90;;;;;;5061638;28;20021;-78
2023/11/29 00:07:26;;;;;;;47.05;20.23;;;1.00;99.90;;;;;;5061517;28;20029;-74
2023/11/29 00:09:51;;;;;;;35.47;16.27;;;1.00;99.90;;;;;;5061617;28;20029;-76
2023/11/29 00:12:17;;;;;;;54.65;24.50;;;1.10;99.90;;;;;;5060199;28;20032;-71
2023/11/29 00:14:42;;;;;;;56.55;24.42;;;1.10;99.90;;;;;;5061051;28;20021;-73
2023/11/29 00:17:10;;;;;;;48.17;21.25;;;1.10;99.90;;;;;;5059638;28;20055;-76
2023/11/29 00:19:36;;;;;;;54.15;24.27;;;1.20;99.90;;;;;;5060731;28;20116;-74
2023/11/29 00:22:01;;;;;;;58.00;24.00;;;1.10;99.90;;;;;;5061486;28;20065;-73
2023/11/29 00:24:27;;;;;;;54.53;24.08;;;1.20;99.90;;;;;;5061396;28;20052;-71
2023/11/29 00:26:52;;;;;;;45.38;20.10;;;1.20;99.90;;;;;;5060555;28;20036;-73
2023/11/29 00:29:18;;;;;;;54.03;23.55;;;1.20;99.90;;;;;;5059480;28;20479;-74
2023/11/29 00:31:44;;;;;;;47.30;19.30;;;1.20;99.90;;;;;;5060564;28;20047;-72
2023/11/29 00:34:10;;;;;;;52.10;24.02;;;1.20;99.90;;;;;;5059728;28;20017;-77
2023/11/29 00:36:35;;;;;;;46.92;21.67;;;1.20;99.90;;;;;;5060284;28;20033;-70
2023/11/29 00:39:05;;;;;;;53.85;23.20;;;1.20;99.90;;;;;;5060801;28;20165;-73
2023/11/29 00:41:30;;;;;;;49.80;23.40;;;1.20;99.90;;;;;;5058283;28;20049;-72
2023/11/29 00:43:56;;;;;;;54.00;24.52;;;1.30;99.90;;;;;;5060493;28;20033;-73
2023/11/29 00:46:31;;;;;;;54.10;24.10;;;1.30;99.90;;;;;;5060021;28;20025;-73
2023/11/29 00:48:57;;;;;;;51.60;24.45;;;1.30;99.90;;;;;;5059457;28;20051;-71
2023/11/29 00:51:22;;;;;;;42.28;16.98;;;1.30;99.90;;;;;;5060822;28;20543;-69
2023/11/29 00:53:48;;;;;;;53.95;23.15;;;1.30;99.90;;;;;;5060482;28;20081;-74
2023/11/29 00:56:14;;;;;;;49.60;19.45;;;1.30;99.90;;;;;;5059590;28;20072;-71
2023/11/29 00:58:40;;;;;;;55.63;23.90;;;1.30;99.90;;;;;;5058751;28;20082;-71
2023/11/29 01:01:05;;;;;;;53.38;24.08;;;1.30;99.90;;;;;;5060366;28;20458;-73
2023/11/29 01:03:31;;;;;;;42.53;18.67;;;1.40;99.90;;;;;;5060219;28;20633;-71
2023/11/29 01:05:57;;;;;;;47.60;21.88;;;1.30;99.90;;;;;;5060214;28;20036;-73
2023/11/29 01:08:25;;;;;;;57.47;26.73;;;1.40;99.90;;;;;;5059937;28;20123;-70
2023/11/29 01:10:52;;;;;;;58.90;26.90;;;1.40;99.90;;;;;;5058960;28;20098;-70
2023/11/29 01:13:19;;;;;;;57.42;25.50;;;1.40;99.90;;;;;;5059628;28;20752;-74
2023/11/29 01:15:48;;;;;;;51.47;24.40;;;1.40;99.90;;;;;;5057887;28;20020;-75
2023/11/29 01:18:15;;;;;;;52.72;22.63;;;1.40;99.90;;;;;;5059842;28;20698;-69
2023/11/29 01:20:41;;;;;;;54.53;23.85;;;1.40;99.90;;;;;;5059601;28;20051;-71
2023/11/29 01:23:07;;;;;;;55.55;25.70;;;1.40;99.90;;;;;;5058735;28;20044;-72
2023/11/29 01:25:34;;;;;;;44.65;21.55;;;1.40;99.90;;;;;;5059761;28;20021;-71
2023/11/29 01:28:01;;;;;;;48.40;21.83;;;1.40;99.90;;;;;;5058793;28;20033;-69
2023/11/29 01:30:27;;;;;;;56.50;25.50;;;1.40;99.90;;;;;;5058969;28;20024;-72
2023/11/29 01:32:52;;;;;;;55.42;25.63;;;1.50;99.90;;;;;;5060022;28;20591;-73
2023/11/29 01:35:18;;;;;;;59.22;24.88;;;1.50;99.90;;;;;;5059282;28;20017;-68
2023/11/29 01:37:44;;;;;;;60.15;24.80;;;1.40;99.90;;;;;;5059513;28;20025;-69
2023/11/29 01:40:10;;;;;;;56.70;26.38;;;1.40;99.90;;;;;;5059531;28;20052;-73
2023/11/29 01:42:37;;;;;;;58.05;27.60;;;1.40;99.90;;;;;;5058324;28;20436;-71
2023/11/29 01:45:03;;;;;;;59.88;25.52;;;1.50;99.90;;;;;;5058971;28;20064;-70
2023/11/29 01:47:37;;;;;;;50.45;23.67;;;1.40;99.90;;;;;;5059675;28;20021;-69
2023/11/29 01:50:04;;;;;;;53.37;24.07;;;1.50;99.90;;;;;;5059970;28;20040;-69
2023/11/29 01:52:31;;;;;;;56.38;26.08;;;1.40;99.90;;;;;;5059074;28;20054;-71
2023/11/29 01:54:58;;;;;;;60.55;27.10;;;1.50;99.90;;;;;;5059237;28;20037;-71
2023/11/29 01:57:24;;;;;;;42.50;19.27;;;1.50;99.90;;;;;;5061336;28;20033;-71
2023/11/29 01:59:50;;;;;;;44.60;20.52;;;1.50;99.90;;;;;;5060711;28;20044;-74
2023/11/29 02:02:15;;;;;;;58.47;26.20;;;1.50;99.90;;;;;;5063688;28;20021;-71
2023/11/29 02:04:42;;;;;;;60.60;27.13;;;1.50;99.90;;;;;;5062732;28;20732;-72
2023/11/29 02:07:08;;;;;;;56.42;26.20;;;1.50;99.90;;;;;;5061303;28;20017;-72
2023/11/29 02:09:34;;;;;;;60.72;26.40;;;1.50;99.90;;;;;;5063422;28;20116;-75
2023/11/29 02:12:00;;;;;;;51.92;22.85;;;1.50;99.90;;;;;;5063504;28;20056;-75
2023/11/29 02:14:25;;;;;;;55.20;22.42;;;1.50;99.90;;;;;;5062428;28;20013;-73
2023/11/29 02:16:51;;;;;;;57.67;27.73;;;1.50;99.90;;;;;;5061861;28;20052;-75
2023/11/29 02:19:17;;;;;;;56.17;26.00;;;1.50;99.90;;;;;;5061987;28;20072;-71
2023/11/29 02:21:43;;;;;;;52.75;24.63;;;1.50;99.90;;;;;;5063241;28;20048;-77
2023/11/29 02:24:15;;;;;;;60.78;25.42;;;1.50;99.90;;;;;;5063256;28;20432;-75
2023/11/29 02:26:41;;;;;;;57.22;25.58;;;1.60;99.90;;;;;;5063174;28;20017;-74
2023/11/29 02:29:06;;;;;;;60.20;26.60;;;1.60;99.90;;;;;;5061533;28;20032;-76
2023/11/29 02:31:32;;;;;;;61.25;26.90;;;1.60;99.90;;;;;;5062556;28;20025;-74
2023/11/29 02:33:58;;;;;;;58.28;26.85;;;1.60;99.90;;;;;;5063738;28;20036;-74
2023/11/29 02:36:24;;;;;;;53.33;24.90;;;1.60;99.90;;;;;;5063259;28;20048;-72
2023/11/29 02:38:50;;;;;;;41.67;19.48;;;1.60;99.90;;;;;;5062779;28;20525;-73
2023/11/29 02:41:16;;;;;;;54.95;25.30;;;1.60;99.90;;;;;;5062900;28;20100;-74
2023/11/29 02:43:41;;;;;;;52.38;24.75;;;1.60;99.90;;;;;;5061781;28;20029;-71
2023/11/29 02:46:07;;;;;;;56.83;25.00;;;1.60;99.90;;;;;;5063218;28;20079;-74
2023/11/29 02:48:33;;;;;;;55.40;26.42;;;1.60;99.90;;;;;;5061371;28;20029;-76
2023/11/29 02:50:58;;;;;;;52.30;25.42;;;1.70;99.90;;;;;;5061432;28;20029;-75
2023/11/29 02:53:24;;;;;;;50.45;24.98;;;1.60;99.90;;;;;;5061835;28;20029;-71
2023/11/29 02:55:50;;;;;;;48.38;23.42;;;1.70;99.90;;;;;;5061882;28;20033;-73
2023/11/29 02:58:15;;;;;;;40.72;19.98;;;1.70;99.90;;;;;;5061988;28;20032;-74
2023/11/29 03:00:41;;;;;;;52.13;24.88;;;1.70;99.90;;;;;;5061096;28;20039;-74
2023/11/29 03:03:07;;;;;;;51.72;22.40;;;1.60;99.90;;;;;;5061988;28;21212;-72
2023/11/29 03:05:36;;;;;;;44.65;21.50;;;1.70;99.90;;;;;;5062267;28;20061;-75
2023/11/29 03:08:07;;;;;;;34.90;15.68;;;1.60;99.90;;;;;;5058982;28;20056;-73
2023/11/29 03:10:33;;;;;;;37.33;17.70;;;1.60;99.90;;;;;;5060830;28;20116;-75
2023/11/29 03:12:59;;;;;;;33.40;15.38;;;1.60;99.90;;;;;;5062094;28;20049;-73
2023/11/29 03:15:25;;;;;;;39.95;20.30;;;1.60;99.90;;;;;;5061830;28;20083;-73
2023/11/29 03:17:50;;;;;;;37.78;19.95;;;1.60;99.90;;;;;;5060772;28;20052;-77
2023/11/29 03:20:16;;;;;;;41.30;20.58;;;1.60;99.90;;;;;;5062000;28;20025;-75
2023/11/29 03:22:41;;;;;;;36.08;17.08;;;1.60;99.90;;;;;;5061150;28;20017;-74
2023/11/29 03:25:08;;;;;;;39.05;19.13;;;1.60;99.90;;;;;;5062296;28;20025;-72
2023/11/29 03:27:33;;;;;;;32.08;16.23;;;1.60;99.90;;;;;;5062314;28;20017;-75
2023/11/29 03:30:02;;;;;;;36.53;17.77;;;1.50;99.90;;;;;;5061262;28;20086;-75
2023/11/29 03:32:28;;;;;;;34.40;16.35;;;1.50;99.90;;;;;;5060640;28;20033;-72
2023/11/29 03:34:54;;;;;;;39.17;19.38;;;1.50;99.90;;;;;;5062426;28;20087;-74
2023/11/29 03:37:21;;;;;;;35.60;17.88;;;1.50;99.90;;;;;;5060169;28;20028;-80
2023/11/29 03:39:46;;;;;;;29.55;15.18;;;1.50;99.90;;;;;;5061258;28;20033;-70
2023/11/29 03:42:12;;;;;;;31.67;15.65;;;1.50;99.90;;;;;;5061815;28;20047;-74
2023/11/29 03:44:37;;;;;;;34.58;16.63;;;1.50;99.90;;;;;;5059169;28;20060;-75
2023/11/29 03:47:06;;;;;;;32.13;16.02;;;1.50;99.90;;;;;;5061574;28;20017;-71
2023/11/29 03:49:33;;;;;;;28.20;13.05;;;1.50;99.90;;;;;;5061251;28;20024;-71
2023/11/29 03:51:59;;;;;;;36.10;18.58;;;1.50;99.90;;;;;;5060061;28;20056;-74
2023/11/29 03:54:25;;;;;;;39.90;19.55;;;1.50;99.90;;;;;;5061190;28;20013;-74
2023/11/29 03:56:50;;;;;;;39.55;19.90;;;1.50;99.90;;;;;;5059913;28;20025;-72
2023/11/29 03:59:16;;;;;;;43.42;21.70;;;1.50;99.90;;;;;;5059453;28;20040;-75
2023/11/29 04:01:42;;;;;;;41.30;20.92;;;1.40;99.90;;;;;;5059614;28;20021;-74
2023/11/29 04:04:08;;;;;;;44.00;22.98;;;1.50;99.90;;;;;;5059821;28;20029;-71
2023/11/29 04:06:33;;;;;;;44.65;21.35;;;1.50;99.90;;;;;;5060511;28;20091;-72
2023/11/29 04:08:59;;;;;;;45.47;22.67;;;1.50;99.90;;;;;;5060144;28;20025;-73
2023/11/29 04:11:25;;;;;;;41.92;21.40;;;1.40;99.90;;;;;;5061535;28;20028;-72
2023/11/29 04:13:50;;;;;;;48.28;24.10;;;1.50;99.90;;;;;;5059947;28;20124;-71
2023/11/29 04:16:28;;;;;;;44.65;21.35;;;1.50;99.90;;;;;;5061298;28;20933;-70
2023/11/29 04:18:55;;;;;;;47.85;23.95;;;1.50;99.90;;;;;;5060619;28;20032;-73
2023/11/29 04:21:25;;;;;;;47.97;23.10;;;1.50;99.90;;;;;;5060515;28;20028;-74
2023/11/29 04:23:52;;;;;;;39.72;18.58;;;1.50;99.90;;;;;;5059692;28;20321;-73
2023/11/29 04:26:30;;;;;;;52.90;24.85;;;1.50;99.90;;;;;;5060791;28;20024;-73
2023/11/29 04:28:56;;;;;;;48.47;22.88;;;1.50;99.90;;;;;;5061265;28;20035;-74
2023/11/29 04:31:22;;;;;;;49.38;24.33;;;1.50;99.90;;;;;;5060875;28;20040;-76
2023/11/29 04:33:49;;;;;;;52.30;24.73;;;1.50;99.90;;;;;;5059118;28;20025;-72
2023/11/29 04:36:14;;;;;;;51.55;24.42;;;1.50;99.90;;;;;;5058534;28;20062;-70
2023/11/29 04:38:40;;;;;;;51.53;23.33;;;1.50;99.90;;;;;;5061019;28;20037;-72
2023/11/29 04:41:06;;;;;;;49.53;22.48;;;1.60;99.90;;;;;;5059915;28;20422;-74
2023/11/29 04:43:34;;;;;;;49.03;22.90;;;1.50;99.90;;;;;;5058752;28;20033;-72
2023/11/29 04:46:00;;;;;;;55.38;26.65;;;1.50;99.90;;;;;;5060923;28;20100;-71
2023/11/29 04:48:27;;;;;;;54.65;24.75;;;1.60;99.90;;;;;;5060339;28;20025;-73
2023/11/29 04:50:52;;;;;;;54.72;23.77;;;1.60;99.90;;;;;;5060431;28;20620;-71
2023/11/29 04:53:18;;;;;;;50.70;22.58;;;1.60;99.90;;;;;;5059018;28;20032;-73
2023/11/29 04:55:52;;;;;;;55.15;26.08;;;1.60;99.90;;;;;;5059179;28;20447;-72
2023/11/29 04:58:19;;;;;;;53.92;24.50;;;1.60;99.90;;;;;;5059412;28;20032;-72
2023/11/29 05:00:46;;;;;;;53.03;24.92;;;1.70;99.90;;;;;;5060675;28;20021;-73
2023/11/29 05:03:11;;;;;;;55.67;25.92;;;1.70;99.90;;;;;;5060603;28;20025;-72
2023/11/29 05:05:37;;;;;;;46.28;22.83;;;1.70;99.90;;;;;;5058859;28;20048;-75
2023/11/29 05:08:05;;;;;;;51.13;25.05;;;1.70;99.90;;;;;;5058680;28;20040;-71
2023/11/29 05:10:34;;;;;;;53.70;25.20;;;1.70;99.90;;;;;;5060234;28;20017;-74
2023/11/29 05:13:01;;;;;;;47.42;22.52;;;1.70;99.90;;;;;;5075358;28;20025;-75
2023/11/29 05:15:27;;;;;;;51.63;25.00;;;1.70;99.90;;;;;;5058984;28;20025;-73
2023/11/29 05:17:52;;;;;;;53.15;26.25;;;1.70;99.90;;;;;;5060042;28;20040;-73
2023/11/29 05:20:21;;;;;;;53.20;23.58;;;1.70;99.90;;;;;;5059120;28;20106;-72
2023/11/29 05:22:56;;;;;;;47.47;22.38;;;1.70;99.90;;;;;;5058553;28;20021;-73
2023/11/29 05:25:24;;;;;;;56.17;25.05;;;1.70;99.90;;;;;;5056370;28;20048;-72
2023/11/29 05:27:50;;;;;;;56.90;24.45;;;1.70;99.90;;;;;;5057913;28;20056;-74
2023/11/29 05:30:16;;;;;;;50.53;23.33;;;1.70;99.90;;;;;;5059221;28;20040;-74
2023/11/29 05:32:42;;;;;;;55.95;25.55;;;1.70;99.90;;;;;;5060175;28;20024;-76
2023/11/29 05:35:11;;;;;;;57.08;26.75;;;1.70;99.90;;;;;;5064788;28;20139;-72
2023/11/29 05:37:47;;;;;;;56.20;26.02;;;1.70;99.90;;;;;;5079708;28;20354;-71
2023/11/29 05:40:20;;;;;;;54.55;25.52;;;1.70;99.90;;;;;;5064541;28;20083;-72
2023/11/29 05:42:46;;;;;;;49.80;20.75;;;1.70;99.90;;;;;;5062969;28;20057;-72
2023/11/29 05:45:12;;;;;;;53.83;24.50;;;1.70;99.90;;;;;;5064261;28;20082;-73
2023/11/29 05:47:39;;;;;;;52.08;24.20;;;1.70;99.90;;;;;;5063100;28;20029;-75
2023/11/29 05:50:08;;;;;;;50.47;22.42;;;1.70;99.90;;;;;;5060493;28;20485;-77
2023/11/29 05:52:39;;;;;;;50.45;21.67;;;1.70;99.90;;;;;;5062904;28;20488;-70
2023/11/29 05:55:11;;;;;;;52.05;23.55;;;1.70;99.90;;;;;;5063244;28;20040;-73
2023/11/29 05:57:37;;;;;;;47.88;21.40;;;1.70;99.90;;;;;;5063226;28;20041;-71
2023/11/29 06:00:11;;;;;;;52.75;24.63;;;1.70;99.90;;;;;;5062915;28;20064;-77
2023/11/29 06:02:37;;;;;;;47.13;21.25;;;1.70;99.90;;;;;;5061201;28;20500;-72
2023/11/29 06:05:05;;;;;;;48.28;22.52;;;1.70;99.90;;;;;;5061585;28;20032;-71
2023/11/29 06:07:37;;;;;;;53.70;24.02;;;1.70;99.90;;;;;;5060928;28;20044;-74
2023/11/29 06:10:07;;;;;;;54.08;24.77;;;1.70;99.90;;;;;;5079066;28;20029;-73
2023/11/29 06:12:33;;;;;;;53.28;23.65;;;1.70;99.90;;;;;;5060825;28;20045;-73
2023/11/29 06:15:04;;;;;;;45.00;21.05;;;1.70;99.90;;;;;;5063290;28;20033;-72
2023/11/29 06:17:32;;;;;;;44.83;21.67;;;1.70;99.90;;;;;;5062869;28;20029;-73
2023/11/29 06:20:04;;;;;;;41.63;19.13;;;1.70;99.90;;;;;;5062757;28;20040;-73
2023/11/29 06:22:32;;;;;;;46.17;22.13;;;1.70;99.90;;;;;;5061387;28;20025;-73
2023/11/29 06:24:59;;;;;;;50.03;21.73;;;1.80;99.90;;;;;;5059623;28;20040;-72
2023/11/29 06:27:38;;;;;;;47.03;22.77;;;1.80;99.90;;;;;;5062109;28;20369;-73
2023/11/29 06:30:18;;;;;;;42.97;20.90;;;1.80;99.90;;;;;;5059883;28;20381;-71
2023/11/29 06:33:07;;;;;;;46.80;21.42;;;1.80;99.90;;;;;;5062102;28;20083;-75
2023/11/29 06:35:36;;;;;;;46.42;21.40;;;1.80;99.90;;;;;;5061865;28;20044;-74
2023/11/29 06:38:08;;;;;;;43.78;20.33;;;1.80;99.90;;;;;;5060718;28;20032;-72
2023/11/29 06:40:34;;;;;;;50.15;21.25;;;1.80;99.90;;;;;;5061902;28;20045;-70
2023/11/29 06:43:03;;;;;;;44.65;20.77;;;1.80;99.90;;;;;;5062404;28;20162;-69
2023/11/29 06:45:30;;;;;;;42.45;18.45;;;1.80;99.90;;;;;;5063951;28;20009;-73
2023/11/29 06:47:56;;;;;;;43.38;20.60;;;1.80;99.90;;;;;;5062613;28;20032;-72
2023/11/29 06:50:23;;;;;;;48.80;22.30;;;1.80;99.90;;;;;;5061583;28;20056;-74
2023/11/29 06:52:49;;;;;;;42.53;18.92;;;1.80;99.90;;;;;;5062633;28;20966;-73
2023/11/29 06:55:15;;;;;;;42.03;20.13;;;1.80;99.90;;;;;;5060970;28;20102;-73
2023/11/29 06:57:46;;;;;;;44.95;20.67;;;1.90;99.90;;;;;;5058949;28;20029;-73
2023/11/29 07:00:16;;;;;;;42.53;20.98;;;1.90;99.90;;;;;;5058277;28;20041;-73
2023/11/29 07:02:42;;;;;;;44.80;20.55;;;1.90;99.90;;;;;;5058281;28;20063;-74
2023/11/29 07:05:08;;;;;;;45.80;21.23;;;1.90;99.90;;;;;;5060677;28;20761;-73
2023/11/29 07:07:35;;;;;;;40.10;19.85;;;1.80;99.90;;;;;;5061188;28;20048;-70
2023/11/29 07:10:09;;;;;;;37.13;16.63;;;1.90;99.90;;;;;;5061022;28;20210;-73
2023/11/29 07:12:34;;;;;;;45.17;20.48;;;1.90;99.90;;;;;;5060597;28;20033;-73
2023/11/29 07:15:00;;;;;;;42.05;20.73;;;1.90;99.90;;;;;;5062494;28;20097;-73
2023/11/29 07:17:26;;;;;;;39.28;18.58;;;1.90;99.90;;;;;;5060600;28;20074;-72
2023/11/29 07:20:00;;;;;;;40.75;19.38;;;1.90;99.90;;;;;;5061291;28;20162;-74
2023/11/29 07:22:37;;;;;;;38.58;20.20;;;1.90;99.90;;;;;;5061759;28;20049;-74
2023/11/29 07:25:04;;;;;;;40.30;19.90;;;2.00;99.90;;;;;;5060128;28;20037;-72
2023/11/29 07:27:30;;;;;;;39.55;19.77;;;2.00;99.90;;;;;;5062317;28;20032;-72
2023/11/29 07:29:56;;;;;;;38.80;18.63;;;2.00;99.90;;;;;;5060865;28;20021;-73
2023/11/29 07:32:22;;;;;;;43.15;19.77;;;2.00;99.90;;;;;;5061954;28;20089;-72
2023/11/29 07:34:50;;;;;;;38.20;18.27;;;2.00;99.90;;;;;;5062147;28;20039;-71
2023/11/29 07:37:20;;;;;;;41.17;18.90;;;2.00;99.90;;;;;;5062875;28;20021;-70
2023/11/29 07:39:47;;;;;;;43.53;20.13;;;2.00;99.90;;;;;;5061372;28;20059;-71
2023/11/29 07:42:13;;;;;;;36.90;15.70;;;2.00;99.90;;;;;;5061304;28;20154;-70
2023/11/29 07:44:49;;;;;;;39.15;19.38;;;2.00;99.90;;;;;;5060998;28;20025;-72
2023/11/29 07:47:15;;;;;;;39.90;19.10;;;2.10;99.90;;;;;;5060505;28;20016;-70
2023/11/29 07:49:41;;;;;;;44.38;19.83;;;2.10;99.90;;;;;;5059797;28;20035;-72
2023/11/29 07:52:08;;;;;;;45.15;18.45;;;2.10;99.90;;;;;;5062535;28;20087;-71
2023/11/29 07:54:36;;;;;;;39.63;19.65;;;2.10;99.90;;;;;;5060148;28;20029;-72
2023/11/29 07:57:23;;;;;;;42.60;20.45;;;2.10;99.90;;;;;;5061000;28;20025;-73
2023/11/29 07:59:48;;;;;;;44.75;20.73;;;2.10;99.90;;;;;;5058160;28;20103;-72
2023/11/29 08:02:14;;;;;;;42.00;21.17;;;2.20;99.90;;;;;;5057808;28;20025;-72
2023/11/29 08:07:45;;;;;;;37.47;19.88;;;2.20;99.90;;;;;;5052336;28;20035;-70
2023/11/29 08:10:24;;;;;;;40.38;20.02;;;2.20;99.90;;;;;;5055203;28;20033;-72
2023/11/29 08:12:51;;;;;;;38.08;19.73;;;2.20;99.90;;;;;;5058613;28;20032;-70
2023/11/29 08:15:17;;;;;;;41.42;19.88;;;2.20;99.90;;;;;;5062007;28;20457;-71
2023/11/29 08:17:48;;;;;;;44.63;19.55;;;2.20;99.90;;;;;;5057246;28;20047;-71
2023/11/29 08:20:14;;;;;;;39.72;19.58;;;2.20;99.90;;;;;;5060402;28;20044;-71
2023/11/29 08:22:40;;;;;;;40.00;19.38;;;2.20;99.90;;;;;;5060224;28;20381;-71
2023/11/29 08:25:07;;;;;;;37.55;19.63;;;2.20;99.90;;;;;;5060006;28;20049;-73
2023/11/29 08:27:34;;;;;;;41.13;19.73;;;2.10;99.90;;;;;;5055365;28;20033;-72
2023/11/29 08:30:00;;;;;;;40.90;20.45;;;2.20;99.90;;;;;;5059650;28;20017;-71
2023/11/29 08:32:27;;;;;;;40.55;20.40;;;2.20;99.90;;;;;;5058546;28;20028;-71
2023/11/29 08:34:53;;;;;;;37.92;19.70;;;2.20;99.90;;;;;;5057318;28;20041;-71
2023/11/29 08:37:19;;;;;;;38.53;19.90;;;2.20;99.90;;;;;;5059163;28;20031;-72
2023/11/29 08:39:44;;;;;;;45.78;20.98;;;2.20;99.90;;;;;;5059237;28;20033;-71
2023/11/29 08:42:11;;;;;;;41.40;20.52;;;2.20;99.90;;;;;;5059788;28;20053;-70
2023/11/29 08:44:46;;;;;;;42.92;21.35;;;2.20;99.90;;;;;;5057819;28;20009;-73
2023/11/29 08:47:12;;;;;;;44.35;20.95;;;2.20;99.90;;;;;;5056517;28;20119;-73
2023/11/29 08:49:38;;;;;;;46.85;22.13;;;2.20;99.90;;;;;;5059661;28;20013;-74
2023/11/29 08:52:04;;;;;;;40.90;20.60;;;2.20;99.90;;;;;;5058413;28;20079;-74
2023/11/29 08:54:30;;;;;;;45.25;23.00;;;2.20;99.90;;;;;;5059618;28;20462;-74
2023/11/29 08:56:56;;;;;;;45.25;23.45;;;2.10;99.90;;;;;;5057410;28;20029;-73
2023/11/29 08:59:25;;;;;;;43.95;22.05;;;2.20;99.90;;;;;;5059627;28;20052;-72
2023/11/29 09:01:52;;;;;;;52.83;23.90;;;2.20;99.90;;;;;;5057528;28;20036;-73
2023/11/29 09:04:17;;;;;;;48.03;23.85;;;2.20;99.90;;;;;;5059745;28;20032;-73
2023/11/29 09:06:43;;;;;;;45.55;21.90;;;2.20;99.90;;;;;;5060309;28;20086;-73
2023/11/29 09:09:09;;;;;;;47.28;22.63;;;2.20;99.90;;;;;;5060780;28;20028;-73
2023/11/29 09:11:34;;;;;;;44.97;21.48;;;2.20;99.90;;;;;;5058559;28;20025;-74
2023/11/29 09:14:00;;;;;;;45.78;22.30;;;2.20;99.90;;;;;;5058323;28;20105;-74
2023/11/29 09:16:26;;;;;;;43.55;21.48;;;2.20;99.90;;;;;;5061281;28;20027;-74
2023/11/29 09:18:51;;;;;;;46.67;21.55;;;2.20;99.90;;;;;;5058121;28;20029;-73
2023/11/29 09:21:17;;;;;;;46.33;20.00;;;2.20;99.90;;;;;;5056829;28;20033;-73
2023/11/29 09:23:43;;;;;;;41.47;21.50;;;2.20;99.90;;;;;;5059544;28;20028;-73
2023/11/29 09:26:09;;;;;;;49.22;22.83;;;2.10;99.90;;;;;;5059434;28;20367;-71
2023/11/29 09:28:35;;;;;;;43.67;20.77;;;2.20;99.90;;;;;;5060406;28;20017;-70
2023/11/29 09:31:01;;;;;;;41.28;20.35;;;2.20;99.90;;;;;;5060020;28;20025;-70
2023/11/29 09:33:27;;;;;;;52.33;23.98;;;2.20;99.90;;;;;;5059918;28;20032;-71
2023/11/29 09:35:54;;;;;;;42.35;21.48;;;2.20;99.90;;;;;;5056573;28;20056;-71
2023/11/29 09:38:21;;;;;;;41.10;20.40;;;2.20;99.90;;;;;;5056933;28;20033;-71
2023/11/29 09:40:47;;;;;;;41.88;20.17;;;2.20;99.90;;;;;;5056717;28;20405;-72
2023/11/29 09:43:13;;;;;;;42.08;21.08;;;2.20;99.90;;;;;;5057953;28;20037;-71
2023/11/29 09:45:39;;;;;;;38.53;19.30;;;2.20;99.90;;;;;;5057813;28;20021;-73
2023/11/29 09:48:08;;;;;;;39.55;19.10;;;2.20;99.90;;;;;;5056014;28;20114;-72
2023/11/29 09:50:36;;;;;;;35.42;17.85;;;2.20;99.90;;;;;;5051156;28;20036;-72
2023/11/29 09:53:02;;;;;;;32.17;16.63;;;2.20;99.90;;;;;;5053420;28;20041;-72
2023/11/29 09:55:28;;;;;;;32.15;16.08;;;2.20;99.90;;;;;;5055780;28;20029;-71
2023/11/29 09:57:55;;;;;;;33.75;16.52;;;2.30;99.90;;;;;;5054949;28;20063;-72
2023/11/29 10:00:27;;;;;;;29.95;15.48;;;2.30;99.90;;;;;;5056811;28;20079;-71
2023/11/29 10:02:54;;;;;;;25.10;13.05;;;2.30;99.90;;;;;;5055847;28;20123;-70
2023/11/29 10:05:19;;;;;;;26.90;13.60;;;2.30;99.90;;;;;;5057919;28;20497;-74
2023/11/29 10:07:46;;;;;;;24.88;12.52;;;2.30;99.90;;;;;;5060177;28;20025;-69
2023/11/29 10:10:13;;;;;;;28.90;11.93;;;2.20;99.90;;;;;;5059070;28;20129;-71
2023/11/29 10:12:47;;;;;;;31.05;14.50;;;2.20;99.90;;;;;;5056124;28;20043;-74
2023/11/29 10:15:16;;;;;;;23.20;12.15;;;2.20;99.90;;;;;;5058922;28;21441;-71
2023/11/29 10:17:44;;;;;;;23.23;11.05;;;2.20;99.90;;;;;;5058603;28;20033;-71
2023/11/29 10:20:12;;;;;;;22.98;11.65;;;2.10;99.90;;;;;;5060056;28;20037;-72
2023/11/29 10:22:38;;;;;;;23.83;11.88;;;2.20;99.90;;;;;;5062336;28;20128;-73
2023/11/29 10:25:24;;;;;;;23.70;12.00;;;2.20;99.90;;;;;;5061181;28;20021;-73
2023/11/29 10:27:50;;;;;;;25.95;12.15;;;2.20;99.90;;;;;;5063933;28;20017;-72
2023/11/29 10:30:17;;;;;;;28.83;12.90;;;2.20;99.90;;;;;;5062087;28;20029;-73
2023/11/29 10:32:43;;;;;;;30.90;11.88;;;2.20;99.90;;;;;;5061598;28;20021;-71
2023/11/29 10:35:15;;;;;;;28.25;13.60;;;2.20;99.90;;;;;;5063760;28;20071;-74
2023/11/29 10:37:55;;;;;;;28.85;13.70;;;2.10;99.90;;;;;;5063705;28;20022;-73
2023/11/29 10:40:27;;;;;;;28.70;13.25;;;2.20;99.90;;;;;;5060585;28;20048;-73
2023/11/29 10:42:54;;;;;;;29.52;13.30;;;2.20;99.90;;;;;;5061664;28;20049;-73
2023/11/29 10:45:26;;;;;;;28.90;14.27;;;2.10;99.90;;;;;;5060733;28;20380;-72
2023/11/29 10:48:00;;;;;;;34.00;15.38;;;2.10;99.90;;;;;;5063172;28;20031;-73
2023/11/29 10:50:31;;;;;;;31.15;14.55;;;2.10;99.90;;;;;;5062266;28;20409;-74
2023/11/29 10:53:07;;;;;;;29.52;14.13;;;2.20;99.90;;;;;;5057910;28;20074;-71
2023/11/29 10:55:38;;;;;;;24.02;10.88;;;2.20;99.90;;;;;;5058145;28;20032;-73
2023/11/29 10:58:20;;;;;;;26.58;11.90;;;2.00;99.90;;;;;;5061238;28;20083;-73
2023/11/29 11:00:46;;;;;;;23.58;11.38;;;1.90;99.90;;;;;;5060739;28;20092;-72
2023/11/29 11:03:57;;;;;;;23.20;11.88;;;1.90;99.90;;;;;;5061396;28;20035;-74
2023/11/29 11:06:26;;;;;;;27.38;11.30;;;1.80;99.90;;;;;;5060143;28;20489;-74
2023/11/29 11:08:56;;;;;;;25.95;11.32;;;1.70;99.90;;;;;;5062007;28;20025;-75
2023/11/29 11:11:46;;;;;;;28.60;13.48;;;1.60;99.90;;;;;;5062221;28;20021;-72
2023/11/29 11:14:25;;;;;;;27.52;12.80;;;1.50;99.90;;;;;;5059060;28;20040;-74
2023/11/29 11:17:06;;;;;;;24.55;11.80;;;1.40;99.90;;;;;;5060721;28;20085;-74
2023/11/29 11:19:43;;;;;;;28.55;12.85;;;1.40;99.90;;;;;;5058708;28;20040;-74
2023/11/29 11:22:14;;;;;;;28.25;12.55;;;1.40;99.90;;;;;;5060094;28;20037;-73
2023/11/29 11:25:03;;;;;;;29.25;13.27;;;1.40;99.90;;;;;;5060639;28;20029;-74
2023/11/29 11:27:35;;;;;;;23.65;11.50;;;1.40;99.90;;;;;;5057862;28;20025;-71
2023/11/29 11:30:25;;;;;;;21.30;10.57;;;1.40;99.90;;;;;;5058556;28;20064;-73
2023/11/29 11:32:55;;;;;;;22.30;11.35;;;1.30;99.90;;;;;;5058238;28;20032;-73
2023/11/29 11:35:29;;;;;;;23.50;11.32;;;1.30;99.90;;;;;;5058916;28;20093;-74
2023/11/29 11:37:59;;;;;;;22.35;10.50;;;1.30;99.90;;;;;;5062715;28;20101;-73
2023/11/29 11:40:31;;;;;;;34.85;13.38;;;1.30;99.90;;;;;;5056761;28;20040;-73
2023/11/29 11:42:58;;;;;;;46.33;19.73;;;1.20;99.90;;;;;;5060588;28;20111;-75
2023/11/29 11:45:36;;;;;;;45.28;19.65;;;1.20;99.90;;;;;;5061595;28;20055;-74
2023/11/29 11:48:12;;;;;;;20.58;10.65;;;1.30;99.90;;;;;;5059538;28;20029;-74
2023/11/29 11:50:37;;;;;;;21.42;10.57;;;1.30;99.90;;;;;;5060582;28;20017;-74
2023/11/29 11:53:06;;;;;;;22.38;10.45;;;1.30;99.90;;;;;;5059176;28;20214;-73
2023/11/29 11:55:41;;;;;;;19.50;10.10;;;1.30;99.90;;;;;;5059610;28;20048;-74
2023/11/29 11:58:19;;;;;;;24.15;9.88;;;1.20;99.90;;;;;;5060462;28;20032;-73
2023/11/29 12:00:50;;;;;;;17.70;9.00;;;1.30;99.90;;;;;;5055294;28;20120;-71
2023/11/29 12:03:16;;;;;;;17.73;9.85;;;1.30;99.90;;;;;;5062142;28;20037;-73
2023/11/29 12:05:42;;;;;;;16.25;8.27;;;1.30;99.90;;;;;;5061526;28;20031;-71
2023/11/29 12:08:09;;;;;;;19.05;9.20;;;1.30;99.90;;;;;;5060821;28;20032;-71
2023/11/29 12:10:35;;;;;;;16.65;9.10;;;1.30;99.90;;;;;;5061844;28;20025;-71
2023/11/29 12:13:04;;;;;;;17.85;9.30;;;1.30;99.90;;;;;;5061171;28;20031;-75
2023/11/29 12:15:33;;;;;;;17.88;8.88;;;1.20;99.90;;;;;;5061864;28;20017;-74
2023/11/29 12:17:59;;;;;;;18.23;9.30;;;1.20;99.90;;;;;;5062059;28;20021;-72
2023/11/29 12:20:25;;;;;;;22.23;10.38;;;1.30;99.90;;;;;;5061991;28;20048;-72
2023/11/29 12:22:51;;;;;;;21.73;10.55;;;1.30;99.90;;;;;;5061530;28;20049;-72
2023/11/29 12:25:22;;;;;;;23.45;11.07;;;1.30;99.90;;;;;;5060126;28;20582;-73
2023/11/29 12:27:50;;;;;;;23.40;10.43;;;1.30;99.90;;;;;;5060032;28;20592;-73
2023/11/29 12:30:17;;;;;;;24.92;10.40;;;1.30;99.90;;;;;;5058425;28;20021;-74
2023/11/29 12:32:43;;;;;;;23.92;11.32;;;1.30;99.90;;;;;;5058323;28;20048;-73
2023/11/29 12:35:15;;;;;;;21.98;10.23;;;1.30;99.90;;;;;;5061149;28;20025;-74
2023/11/29 12:37:46;;;;;;;22.85;10.70;;;1.30;99.90;;;;;;5060275;28;20099;-74
2023/11/29 12:40:26;;;;;;;21.58;10.45;;;1.20;99.90;;;;;;5059222;28;20041;-70
2023/11/29 12:42:52;;;;;;;26.27;10.20;;;1.20;99.90;;;;;;5059523;28;20060;-71
2023/11/29 12:45:18;;;;;;;22.17;10.80;;;1.20;99.90;;;;;;5059904;28;20371;-73